Worthing, Texas
Current Conditions -  °F | °C
As of 3:35 PM on Saturday 25 Oct 2014 (Local Time) from K66R Reporting Station
Clear Clear  
Wind Chill: 84°   Ceiling: Unl
Heat Index: 85°   Visibility: 10mi
Dew Point: 61°   Wind: 3mph
Humidity: 46%   Direction: 170°S
Pressure: 30.09"   Gusts: NA
Location:  29.3984°N, 96.8256°W
Report Text: K66R 252035Z AUTO 17003KT 10SM CLR 29/16 A3009 RMK AO2 T02910163
Loading
Personal Weather Stations






























Interactive Weather Map
Tropical Storm Tracking
New forecast layout! Learn more

10-Day Weather Forecast

Advertisements
Track Severe Weather on mobile